sensor_id;sensor_type;location;lat;lon;timestamp;pressure;altitude;pressure_sealevel;temperature;humidity
33191;BME280;19554;42.652;23.364;2023-05-23T00:01:53;94508.97;;;14.88;68.28
33191;BME280;19554;42.652;23.364;2023-05-23T00:04:19;94502.47;;;14.89;67.92
33191;BME280;19554;42.652;23.364;2023-05-23T00:06:45;94453.31;;;14.63;67.78
33191;BME280;19554;42.652;23.364;2023-05-23T00:09:14;94498.66;;;14.90;67.82
33191;BME280;19554;42.652;23.364;2023-05-23T00:11:40;94492.34;;;14.86;67.29
33191;BME280;19554;42.652;23.364;2023-05-23T00:14:10;94449.25;;;14.57;67.01
33191;BME280;19554;42.652;23.364;2023-05-23T00:16:35;94496.78;;;14.82;66.68
33191;BME280;19554;42.652;23.364;2023-05-23T00:19:05;94442.84;;;14.35;67.27
33191;BME280;19554;42.652;23.364;2023-05-23T00:21:31;94496.94;;;14.68;67.22
33191;BME280;19554;42.652;23.364;2023-05-23T00:23:57;94493.63;;;14.63;67.01
33191;BME280;19554;42.652;23.364;2023-05-23T00:26:22;94491.41;;;14.65;67.39
33191;BME280;19554;42.652;23.364;2023-05-23T00:28:48;94414.09;;;14.18;67.34
33191;BME280;19554;42.652;23.364;2023-05-23T00:31:13;94477.03;;;14.61;67.53
33191;BME280;19554;42.652;23.364;2023-05-23T00:33:39;94494.13;;;14.74;68.72
33191;BME280;19554;42.652;23.364;2023-05-23T00:36:04;94472.94;;;14.63;69.41
33191;BME280;19554;42.652;23.364;2023-05-23T00:38:30;94484.78;;;14.71;69.39
33191;BME280;19554;42.652;23.364;2023-05-23T00:40:55;94484.78;;;14.71;69.94
33191;BME280;19554;42.652;23.364;2023-05-23T00:43:20;94477.84;;;14.70;70.04
33191;BME280;19554;42.652;23.364;2023-05-23T00:45:47;94481.63;;;14.69;69.49
33191;BME280;19554;42.652;23.364;2023-05-23T00:48:13;94482.25;;;14.66;68.15
33191;BME280;19554;42.652;23.364;2023-05-23T00:50:39;94491.09;;;14.58;67.39
33191;BME280;19554;42.652;23.364;2023-05-23T00:53:05;94486.34;;;14.55;67.15
33191;BME280;19554;42.652;23.364;2023-05-23T00:55:31;94485.09;;;14.52;67.09
33191;BME280;19554;42.652;23.364;2023-05-23T00:57:56;94477.81;;;14.53;67.07
33191;BME280;19554;42.652;23.364;2023-05-23T01:00:24;94472.09;;;14.45;66.26
33191;BME280;19554;42.652;23.364;2023-05-23T01:02:51;94487.47;;;14.54;66.50
33191;BME280;19554;42.652;23.364;2023-05-23T01:05:18;94486.19;;;14.51;66.58
33191;BME280;19554;42.652;23.364;2023-05-23T01:07:45;94490.44;;;14.43;66.30
33191;BME280;19554;42.652;23.364;2023-05-23T01:10:12;94494.84;;;14.39;66.90
33191;BME280;19554;42.652;23.364;2023-05-23T01:15:15;94483.75;;;14.32;67.42
33191;BME280;19554;42.652;23.364;2023-05-23T01:17:51;94497.03;;;14.37;67.64
33191;BME280;19554;42.652;23.364;2023-05-23T01:20:25;94489.00;;;14.37;66.94
33191;BME280;19554;42.652;23.364;2023-05-23T01:23:09;94433.53;;;14.07;66.97
33191;BME280;19554;42.652;23.364;2023-05-23T01:28:51;94485.06;;;14.43;66.40
33191;BME280;19554;42.652;23.364;2023-05-23T01:31:18;94493.88;;;14.35;65.64
33191;BME280;19554;42.652;23.364;2023-05-23T01:33:45;94498.47;;;14.35;65.75
33191;BME280;19554;42.652;23.364;2023-05-23T01:36:14;94497.97;;;14.24;65.74
33191;BME280;19554;42.652;23.364;2023-05-23T01:38:39;94500.31;;;14.17;66.07
33191;BME280;19554;42.652;23.364;2023-05-23T01:41:05;94479.09;;;13.98;66.45
33191;BME280;19554;42.652;23.364;2023-05-23T01:43:30;94478.47;;;13.92;66.99
33191;BME280;19554;42.652;23.364;2023-05-23T01:45:56;94412.69;;;13.46;67.45
33191;BME280;19554;42.652;23.364;2023-05-23T01:48:23;94482.72;;;13.93;67.70
33191;BME280;19554;42.652;23.364;2023-05-23T01:50:50;94482.28;;;13.91;67.68
33191;BME280;19554;42.652;23.364;2023-05-23T01:53:19;94470.09;;;13.85;67.76
33191;BME280;19554;42.652;23.364;2023-05-23T01:55:45;94481.16;;;13.92;67.80
33191;BME280;19554;42.652;23.364;2023-05-23T01:58:11;94420.16;;;13.58;67.49
33191;BME280;19554;42.652;23.364;2023-05-23T02:00:36;94472.63;;;13.90;66.71
33191;BME280;19554;42.652;23.364;2023-05-23T02:03:02;94477.38;;;13.93;66.11
33191;BME280;19554;42.652;23.364;2023-05-23T02:05:28;94472.50;;;13.95;66.04
33191;BME280;19554;42.652;23.364;2023-05-23T02:07:53;94476.75;;;13.96;66.40
33191;BME280;19554;42.652;23.364;2023-05-23T02:10:19;94457.91;;;13.79;66.47
33191;BME280;19554;42.652;23.364;2023-05-23T02:12:44;94433.84;;;13.57;66.65
33191;BME280;19554;42.652;23.364;2023-05-23T02:15:10;94477.81;;;13.87;66.83
33191;BME280;19554;42.652;23.364;2023-05-23T02:17:36;94483.03;;;13.83;66.90
33191;BME280;19554;42.652;23.364;2023-05-23T02:20:03;94482.06;;;13.79;67.19
33191;BME280;19554;42.652;23.364;2023-05-23T02:22:28;94482.69;;;13.76;67.68
33191;BME280;19554;42.652;23.364;2023-05-23T02:24:54;94478.56;;;13.70;67.78
33191;BME280;19554;42.652;23.364;2023-05-23T02:27:19;94484.53;;;13.67;67.25
33191;BME280;19554;42.652;23.364;2023-05-23T02:29:45;94479.16;;;13.67;67.28
33191;BME280;19554;42.652;23.364;2023-05-23T02:32:10;94479.16;;;13.67;67.54
33191;BME280;19554;42.652;23.364;2023-05-23T02:34:35;94481.38;;;13.65;67.36
33191;BME280;19554;42.652;23.364;2023-05-23T02:37:02;94478.22;;;13.63;67.71
33191;BME280;19554;42.652;23.364;2023-05-23T02:39:28;94474.75;;;13.62;67.83
33191;BME280;19554;42.652;23.364;2023-05-23T02:41:53;94470.50;;;13.61;67.80
33191;BME280;19554;42.652;23.364;2023-05-23T02:44:18;94464.34;;;13.61;66.88
33191;BME280;19554;42.652;23.364;2023-05-23T02:46:47;94470.50;;;13.61;67.90
33191;BME280;19554;42.652;23.364;2023-05-23T02:49:12;94459.59;;;13.58;67.35
33191;BME280;19554;42.652;23.364;2023-05-23T02:51:37;94420.28;;;13.22;66.72
33191;BME280;19554;42.652;23.364;2023-05-23T02:54:03;94449.41;;;13.37;66.85
33191;BME280;19554;42.652;23.364;2023-05-23T02:56:28;94466.97;;;13.52;68.64
33191;BME280;19554;42.652;23.364;2023-05-23T02:58:54;94455.13;;;13.44;68.91
33191;BME280;19554;42.652;23.364;2023-05-23T03:01:19;94459.59;;;13.58;69.98
33191;BME280;19554;42.652;23.364;2023-05-23T03:03:45;94463.53;;;13.60;69.78
33191;BME280;19554;42.652;23.364;2023-05-23T03:06:10;94452.44;;;13.53;69.46
33191;BME280;19554;42.652;23.364;2023-05-23T03:08:39;94466.03;;;13.57;69.51
33191;BME280;19554;42.652;23.364;2023-05-23T03:11:04;94460.03;;;13.51;69.72
33191;BME280;19554;42.652;23.364;2023-05-23T03:13:30;94455.41;;;13.43;69.69
33191;BME280;19554;42.652;23.364;2023-05-23T03:15:55;94436.63;;;13.34;69.14
33191;BME280;19554;42.652;23.364;2023-05-23T03:18:20;94440.59;;;13.45;68.42
33191;BME280;19554;42.652;23.364;2023-05-23T03:20:46;94463.34;;;13.57;67.42
33191;BME280;19554;42.652;23.364;2023-05-23T03:23:11;94462.38;;;13.52;66.82
33191;BME280;19554;42.652;23.364;2023-05-23T03:25:36;94461.50;;;13.66;67.21
33191;BME280;19554;42.652;23.364;2023-05-23T03:28:02;94456.50;;;13.82;67.40
33191;BME280;19554;42.652;23.364;2023-05-23T03:30:27;94477.09;;;14.04;66.88
33191;BME280;19554;42.652;23.364;2023-05-23T03:32:53;94479.81;;;14.21;65.44
33191;BME280;19554;42.652;23.364;2023-05-23T03:35:18;94478.75;;;14.39;64.85
33191;BME280;19554;42.652;23.364;2023-05-23T03:37:44;94452.97;;;14.38;65.05
33191;BME280;19554;42.652;23.364;2023-05-23T03:40:09;94470.41;;;14.58;63.68
33191;BME280;19554;42.652;23.364;2023-05-23T03:42:35;94492.06;;;14.88;62.28
33191;BME280;19554;42.652;23.364;2023-05-23T03:45:01;94498.34;;;15.01;62.32
33191;BME280;19554;42.652;23.364;2023-05-23T03:47:26;94492.34;;;15.04;62.11
33191;BME280;19554;42.652;23.364;2023-05-23T03:49:51;94484.72;;;15.23;61.08
33191;BME280;19554;42.652;23.364;2023-05-23T03:52:17;94459.81;;;14.79;62.42
33191;BME280;19554;42.652;23.364;2023-05-23T03:54:42;94485.69;;;15.10;62.43
33191;BME280;19554;42.652;23.364;2023-05-23T03:57:07;94486.94;;;15.38;61.83
33191;BME280;19554;42.652;23.364;2023-05-23T03:59:33;94412.19;;;15.06;60.63
33191;BME280;19554;42.652;23.364;2023-05-23T04:01:59;94486.47;;;15.83;59.95
33191;BME280;19554;42.652;23.364;2023-05-23T04:04:28;94491.91;;;16.04;59.45
33191;BME280;19554;42.652;23.364;2023-05-23T04:06:53;94384.66;;;15.56;58.44
33191;BME280;19554;42.652;23.364;2023-05-23T04:09:19;94402.53;;;15.90;57.72
33191;BME280;19554;42.652;23.364;2023-05-23T04:11:45;94489.16;;;16.43;58.07
33191;BME280;19554;42.652;23.364;2023-05-23T04:14:11;94480.56;;;16.70;57.70
33191;BME280;19554;42.652;23.364;2023-05-23T04:16:37;94448.88;;;16.67;57.38
33191;BME280;19554;42.652;23.364;2023-05-23T04:19:06;94482.69;;;17.07;57.34
33191;BME280;19554;42.652;23.364;2023-05-23T04:21:32;94487.78;;;17.20;57.83
33191;BME280;19554;42.652;23.364;2023-05-23T04:23:57;94481.97;;;17.31;58.19
33191;BME280;19554;42.652;23.364;2023-05-23T04:26:23;94483.13;;;17.42;58.62
33191;BME280;19554;42.652;23.364;2023-05-23T04:28:49;94488.81;;;17.61;58.69
33191;BME280;19554;42.652;23.364;2023-05-23T04:31:20;94415.81;;;17.12;58.92
33191;BME280;19554;42.652;23.364;2023-05-23T04:33:49;94495.88;;;17.20;60.40
33191;BME280;19554;42.652;23.364;2023-05-23T04:36:15;94420.00;;;16.34;61.96
33191;BME280;19554;42.652;23.364;2023-05-23T04:38:40;94488.50;;;16.75;61.52
33191;BME280;19554;42.652;23.364;2023-05-23T04:41:06;94453.22;;;16.39;61.73
33191;BME280;19554;42.652;23.364;2023-05-23T04:43:34;94489.91;;;16.52;61.69
33191;BME280;19554;42.652;23.364;2023-05-23T04:46:02;94492.50;;;16.40;62.70
33191;BME280;19554;42.652;23.364;2023-05-23T04:48:28;94490.94;;;16.39;63.01
33191;BME280;19554;42.652;23.364;2023-05-23T04:50:53;94486.13;;;15.94;65.16
33191;BME280;19554;42.652;23.364;2023-05-23T04:53:20;94497.69;;;15.85;66.15
33191;BME280;19554;42.652;23.364;2023-05-23T04:55:46;94510.56;;;15.71;67.38
33191;BME280;19554;42.652;23.364;2023-05-23T04:58:11;94480.19;;;15.62;66.78
33191;BME280;19554;42.652;23.364;2023-05-23T05:00:37;94504.19;;;15.84;67.36
33191;BME280;19554;42.652;23.364;2023-05-23T05:03:02;94515.97;;;15.71;67.90
33191;BME280;19554;42.652;23.364;2023-05-23T05:05:27;94514.91;;;15.37;69.84
33191;BME280;19554;42.652;23.364;2023-05-23T05:07:53;94500.41;;;15.12;70.68
33191;BME280;19554;42.652;23.364;2023-05-23T05:10:19;94525.88;;;14.98;71.55
33191;BME280;19554;42.652;23.364;2023-05-23T05:12:45;94506.09;;;14.76;71.86
33191;BME280;19554;42.652;23.364;2023-05-23T05:15:12;94520.81;;;15.05;70.80
33191;BME280;19554;42.652;23.364;2023-05-23T05:17:38;94522.22;;;15.20;70.33
33191;BME280;19554;42.652;23.364;2023-05-23T05:20:04;94523.47;;;15.13;69.97
33191;BME280;19554;42.652;23.364;2023-05-23T05:22:41;94526.81;;;15.02;70.12
33191;BME280;19554;42.652;23.364;2023-05-23T05:25:08;94522.72;;;15.04;70.94
33191;BME280;19554;42.652;23.364;2023-05-23T05:27:34;94527.78;;;15.06;70.72
33191;BME280;19554;42.652;23.364;2023-05-23T05:30:11;94524.91;;;14.93;71.76
33191;BME280;19554;42.652;23.364;2023-05-23T05:32:36;94530.94;;;15.08;72.04
33191;BME280;19554;42.652;23.364;2023-05-23T05:35:02;94525.38;;;15.13;71.25
33191;BME280;19554;42.652;23.364;2023-05-23T05:37:28;94502.94;;;15.09;71.01
33191;BME280;19554;42.652;23.364;2023-05-23T05:39:54;94505.31;;;15.19;70.46
33191;BME280;19554;42.652;23.364;2023-05-23T05:42:22;94522.03;;;15.33;70.14
33191;BME280;19554;42.652;23.364;2023-05-23T05:44:48;94528.38;;;15.20;70.56
33191;BME280;19554;42.652;23.364;2023-05-23T05:47:14;94531.38;;;15.36;70.73
33191;BME280;19554;42.652;23.364;2023-05-23T05:49:40;94525.88;;;15.15;72.15
33191;BME280;19554;42.652;23.364;2023-05-23T05:52:06;94495.97;;;15.16;72.29
33191;BME280;19554;42.652;23.364;2023-05-23T05:54:32;94524.84;;;15.54;71.16
33191;BME280;19554;42.652;23.364;2023-05-23T05:56:57;94533.97;;;15.79;70.47
33191;BME280;19554;42.652;23.364;2023-05-23T05:59:23;94532.97;;;15.93;69.25
33191;BME280;19554;42.652;23.364;2023-05-23T06:01:48;94528.63;;;16.09;68.79
33191;BME280;19554;42.652;23.364;2023-05-23T06:04:16;94517.69;;;16.14;68.67
33191;BME280;19554;42.652;23.364;2023-05-23T06:06:42;94522.22;;;16.31;67.96
33191;BME280;19554;42.652;23.364;2023-05-23T06:09:07;94517.66;;;16.44;67.70
33191;BME280;19554;42.652;23.364;2023-05-23T06:11:33;94527.91;;;16.59;67.49
33191;BME280;19554;42.652;23.364;2023-05-23T06:13:58;94509.47;;;16.61;66.66
33191;BME280;19554;42.652;23.364;2023-05-23T06:16:23;94517.63;;;16.52;67.22
33191;BME280;19554;42.652;23.364;2023-05-23T06:18:49;94536.09;;;16.63;67.51
33191;BME280;19554;42.652;23.364;2023-05-23T06:21:14;94532.56;;;16.71;67.22
33191;BME280;19554;42.652;23.364;2023-05-23T06:23:40;94527.28;;;17.04;66.31
33191;BME280;19554;42.652;23.364;2023-05-23T06:26:05;94517.91;;;17.22;65.67
33191;BME280;19554;42.652;23.364;2023-05-23T06:28:36;94523.22;;;17.64;65.33
33191;BME280;19554;42.652;23.364;2023-05-23T06:31:02;94525.31;;;18.04;63.66
33191;BME280;19554;42.652;23.364;2023-05-23T06:33:27;94525.69;;;18.39;62.54
33191;BME280;19554;42.652;23.364;2023-05-23T06:35:53;94526.00;;;18.50;61.86
33191;BME280;19554;42.652;23.364;2023-05-23T06:38:18;94463.88;;;18.13;60.35
33191;BME280;19554;42.652;23.364;2023-05-23T06:40:43;94532.88;;;18.47;60.71
33191;BME280;19554;42.652;23.364;2023-05-23T06:43:09;94527.78;;;18.83;61.02
33191;BME280;19554;42.652;23.364;2023-05-23T06:45:35;94526.44;;;19.17;59.99
33191;BME280;19554;42.652;23.364;2023-05-23T06:48:02;94514.03;;;19.44;58.61
33191;BME280;19554;42.652;23.364;2023-05-23T06:50:27;94524.38;;;19.54;57.66
33191;BME280;19554;42.652;23.364;2023-05-23T06:52:53;94524.81;;;19.56;57.61
33191;BME280;19554;42.652;23.364;2023-05-23T06:55:18;94520.34;;;19.92;56.05
33191;BME280;19554;42.652;23.364;2023-05-23T06:57:44;94515.81;;;20.12;55.36
33191;BME280;19554;42.652;23.364;2023-05-23T07:00:11;94459.81;;;20.00;54.53
33191;BME280;19554;42.652;23.364;2023-05-23T07:02:37;94475.69;;;20.18;54.47
33191;BME280;19554;42.652;23.364;2023-05-23T07:05:03;94508.66;;;20.71;53.19
33191;BME280;19554;42.652;23.364;2023-05-23T07:07:29;94507.84;;;21.05;52.40
33191;BME280;19554;42.652;23.364;2023-05-23T07:09:54;94502.38;;;20.67;53.12
33191;BME280;19554;42.652;23.364;2023-05-23T07:12:19;94506.38;;;20.38;54.82
33191;BME280;19554;42.652;23.364;2023-05-23T07:14:45;94496.31;;;20.38;55.22
33191;BME280;19554;42.652;23.364;2023-05-23T07:17:10;94499.38;;;20.21;54.57
33191;BME280;19554;42.652;23.364;2023-05-23T07:19:36;94477.63;;;20.17;56.08
33191;BME280;19554;42.652;23.364;2023-05-23T07:22:02;94492.25;;;20.64;55.39
33191;BME280;19554;42.652;23.364;2023-05-23T07:24:27;94495.84;;;20.87;54.31
33191;BME280;19554;42.652;23.364;2023-05-23T07:26:52;94491.13;;;20.84;53.37
33191;BME280;19554;42.652;23.364;2023-05-23T07:29:18;94489.72;;;20.90;53.77
33191;BME280;19554;42.652;23.364;2023-05-23T07:31:43;94480.56;;;20.28;54.91
33191;BME280;19554;42.652;23.364;2023-05-23T07:34:08;94462.22;;;20.05;55.92
33191;BME280;19554;42.652;23.364;2023-05-23T07:36:34;94474.00;;;20.45;56.39
33191;BME280;19554;42.652;23.364;2023-05-23T07:39:02;94475.88;;;20.44;56.08
33191;BME280;19554;42.652;23.364;2023-05-23T07:41:28;94470.53;;;20.64;55.65
33191;BME280;19554;42.652;23.364;2023-05-23T07:43:53;94473.88;;;20.92;55.08
33191;BME280;19554;42.652;23.364;2023-05-23T07:46:18;94477.72;;;21.11;53.96
33191;BME280;19554;42.652;23.364;2023-05-23T07:48:44;94467.16;;;21.25;53.48
33191;BME280;19554;42.652;23.364;2023-05-23T07:51:09;94465.88;;;21.38;52.89
33191;BME280;19554;42.652;23.364;2023-05-23T07:53:34;94463.84;;;21.55;53.06
33191;BME280;19554;42.652;23.364;2023-05-23T07:56:04;94457.63;;;21.54;52.81
33191;BME280;19554;42.652;23.364;2023-05-23T07:58:30;94444.78;;;21.51;53.05
33191;BME280;19554;42.652;23.364;2023-05-23T08:00:55;94472.94;;;21.85;52.36
33191;BME280;19554;42.652;23.364;2023-05-23T08:03:22;94472.31;;;21.95;52.05
33191;BME280;19554;42.652;23.364;2023-05-23T08:05:47;94429.78;;;21.38;52.80
33191;BME280;19554;42.652;23.364;2023-05-23T08:08:13;94467.44;;;21.00;54.37
33191;BME280;19554;42.652;23.364;2023-05-23T08:10:38;94418.25;;;20.47;54.81
33191;BME280;19554;42.652;23.364;2023-05-23T08:13:04;94471.72;;;20.82;55.17
33191;BME280;19554;42.652;23.364;2023-05-23T08:15:31;94469.16;;;20.89;54.75
33191;BME280;19554;42.652;23.364;2023-05-23T08:17:57;94468.00;;;20.90;55.23
33191;BME280;19554;42.652;23.364;2023-05-23T08:20:25;94463.00;;;20.73;55.03
33191;BME280;19554;42.652;23.364;2023-05-23T08:22:58;94465.41;;;20.43;55.70
33191;BME280;19554;42.652;23.364;2023-05-23T08:25:25;94463.81;;;20.57;55.82
33191;BME280;19554;42.652;23.364;2023-05-23T08:27:55;94469.69;;;20.59;55.20
33191;BME280;19554;42.652;23.364;2023-05-23T08:30:21;94408.44;;;20.23;55.35
33191;BME280;19554;42.652;23.364;2023-05-23T08:32:47;94458.22;;;20.66;55.80
33191;BME280;19554;42.652;23.364;2023-05-23T08:35:12;94456.31;;;20.86;56.07
33191;BME280;19554;42.652;23.364;2023-05-23T08:37:38;94465.13;;;20.64;56.54
33191;BME280;19554;42.652;23.364;2023-05-23T08:40:06;94459.50;;;20.92;56.10
33191;BME280;19554;42.652;23.364;2023-05-23T08:42:33;94454.00;;;20.88;55.52
33191;BME280;19554;42.652;23.364;2023-05-23T08:44:58;94453.72;;;20.93;55.79
33191;BME280;19554;42.652;23.364;2023-05-23T08:47:24;94454.00;;;21.08;55.59
33191;BME280;19554;42.652;23.364;2023-05-23T08:49:51;94427.16;;;20.64;55.29
33191;BME280;19554;42.652;23.364;2023-05-23T08:52:20;94452.84;;;20.70;55.74
33191;BME280;19554;42.652;23.364;2023-05-23T08:54:47;94448.56;;;20.88;55.80
33191;BME280;19554;42.652;23.364;2023-05-23T08:57:13;94452.19;;;20.92;55.54
33191;BME280;19554;42.652;23.364;2023-05-23T08:59:39;94447.56;;;21.16;52.98
33191;BME280;19554;42.652;23.364;2023-05-23T09:02:07;94444.00;;;21.31;51.61
33191;BME280;19554;42.652;23.364;2023-05-23T09:04:35;94432.88;;;21.59;52.17
33191;BME280;19554;42.652;23.364;2023-05-23T09:07:01;94442.91;;;21.78;53.70
33191;BME280;19554;42.652;23.364;2023-05-23T09:09:27;94437.34;;;21.94;52.58
33191;BME280;19554;42.652;23.364;2023-05-23T09:11:53;94444.38;;;21.95;52.19
33191;BME280;19554;42.652;23.364;2023-05-23T09:14:19;94447.44;;;21.93;51.00
33191;BME280;19554;42.652;23.364;2023-05-23T09:16:45;94411.81;;;21.52;50.18
33191;BME280;19554;42.652;23.364;2023-05-23T09:19:13;94447.53;;;22.00;46.29
33191;BME280;19554;42.652;23.364;2023-05-23T09:21:42;94438.72;;;21.84;46.43
33191;BME280;19554;42.652;23.364;2023-05-23T09:24:08;94417.72;;;21.81;46.07
33191;BME280;19554;42.652;23.364;2023-05-23T09:26:33;94362.38;;;21.66;46.75
33191;BME280;19554;42.652;23.364;2023-05-23T09:28:59;94412.03;;;22.13;44.23
33191;BME280;19554;42.652;23.364;2023-05-23T09:31:27;94433.16;;;22.50;42.08
33191;BME280;19554;42.652;23.364;2023-05-23T09:33:53;94431.38;;;22.61;41.78
33191;BME280;19554;42.652;23.364;2023-05-23T09:36:18;94412.97;;;22.51;42.93
33191;BME280;19554;42.652;23.364;2023-05-23T09:38:45;94428.06;;;22.75;42.96
33191;BME280;19554;42.652;23.364;2023-05-23T09:41:11;94431.50;;;22.71;42.19
33191;BME280;19554;42.652;23.364;2023-05-23T09:43:50;94428.63;;;22.87;41.65
33191;BME280;19554;42.652;23.364;2023-05-23T09:46:18;94426.72;;;22.61;41.73
33191;BME280;19554;42.652;23.364;2023-05-23T09:48:50;94358.28;;;22.03;39.63
33191;BME280;19554;42.652;23.364;2023-05-23T09:51:19;94419.94;;;22.48;40.03
33191;BME280;19554;42.652;23.364;2023-05-23T09:53:47;94416.84;;;22.50;40.14
33191;BME280;19554;42.652;23.364;2023-05-23T09:56:15;94415.44;;;22.63;40.51
33191;BME280;19554;42.652;23.364;2023-05-23T09:58:45;94413.53;;;22.63;39.63
33191;BME280;19554;42.652;23.364;2023-05-23T10:01:11;94407.28;;;22.63;40.37
33191;BME280;19554;42.652;23.364;2023-05-23T10:06:37;94352.47;;;22.04;38.02
33191;BME280;19554;42.652;23.364;2023-05-23T10:09:08;94416.28;;;22.37;36.78
33191;BME280;19554;42.652;23.364;2023-05-23T10:14:44;94405.59;;;22.51;38.09
33191;BME280;19554;42.652;23.364;2023-05-23T10:17:30;94360.38;;;22.13;38.51
33191;BME280;19554;42.652;23.364;2023-05-23T10:20:03;94404.06;;;22.54;38.31
33191;BME280;19554;42.652;23.364;2023-05-23T10:22:34;94406.47;;;22.59;37.80
33191;BME280;19554;42.652;23.364;2023-05-23T10:25:03;94363.63;;;21.95;36.04
33191;BME280;19554;42.652;23.364;2023-05-23T10:27:38;94407.44;;;22.17;36.46
33191;BME280;19554;42.652;23.364;2023-05-23T10:30:07;94395.16;;;22.27;37.80
33191;BME280;19554;42.652;23.364;2023-05-23T10:32:34;94402.84;;;22.21;37.40
33191;BME280;19554;42.652;23.364;2023-05-23T10:37:49;94399.72;;;22.19;37.11
33191;BME280;19554;42.652;23.364;2023-05-23T10:43:54;94402.66;;;22.10;36.40
33191;BME280;19554;42.652;23.364;2023-05-23T10:45:53;94325.03;;;21.60;35.89
33191;BME280;19554;42.652;23.364;2023-05-23T10:48:33;94379.06;;;21.91;36.97
33191;BME280;19554;42.652;23.364;2023-05-23T10:51:06;94383.72;;;21.64;37.27
33191;BME280;19554;42.652;23.364;2023-05-23T10:53:41;94383.94;;;21.56;36.82
33191;BME280;19554;42.652;23.364;2023-05-23T10:56:08;94372.97;;;21.48;36.87
33191;BME280;19554;42.652;23.364;2023-05-23T10:58:35;94385.31;;;21.46;36.17
33191;BME280;19554;42.652;23.364;2023-05-23T11:01:05;94382.78;;;21.34;36.30
33191;BME280;19554;42.652;23.364;2023-05-23T11:03:36;94326.59;;;21.15;35.87
33191;BME280;19554;42.652;23.364;2023-05-23T11:06:03;94366.81;;;21.51;36.48
33191;BME280;19554;42.652;23.364;2023-05-23T11:08:39;94309.13;;;21.35;36.25
33191;BME280;19554;42.652;23.364;2023-05-23T11:11:06;94365.47;;;21.91;36.49
33191;BME280;19554;42.652;23.364;2023-05-23T11:13:55;94368.78;;;22.04;35.58
33191;BME280;19554;42.652;23.364;2023-05-23T11:16:31;94363.28;;;21.74;35.43
33191;BME280;19554;42.652;23.364;2023-05-23T11:21:48;94357.63;;;21.60;35.48
33191;BME280;19554;42.652;23.364;2023-05-23T11:24:14;94358.34;;;21.57;35.83
33191;BME280;19554;42.652;23.364;2023-05-23T11:26:39;94357.09;;;21.50;35.42
33191;BME280;19554;42.652;23.364;2023-05-23T11:29:08;94353.69;;;21.57;35.65
33191;BME280;19554;42.652;23.364;2023-05-23T11:31:37;94355.44;;;21.69;35.37
33191;BME280;19554;42.652;23.364;2023-05-23T11:34:02;94360.16;;;21.72;35.37
33191;BME280;19554;42.652;23.364;2023-05-23T11:36:29;94356.50;;;21.87;34.72
33191;BME280;19554;42.652;23.364;2023-05-23T11:38:55;94346.97;;;22.00;34.90
33191;BME280;19554;42.652;23.364;2023-05-23T11:41:21;94236.13;;;21.30;35.51
33191;BME280;19554;42.652;23.364;2023-05-23T11:43:50;94348.97;;;22.04;35.69
33191;BME280;19554;42.652;23.364;2023-05-23T11:46:16;94348.97;;;22.04;34.22
33191;BME280;19554;42.652;23.364;2023-05-23T11:48:45;94341.28;;;22.09;34.11
33191;BME280;19554;42.652;23.364;2023-05-23T11:51:11;94341.47;;;22.20;33.73
33191;BME280;19554;42.652;23.364;2023-05-23T11:53:37;94306.84;;;21.90;33.68
33191;BME280;19554;42.652;23.364;2023-05-23T11:56:03;94340.66;;;21.93;34.96
33191;BME280;19554;42.652;23.364;2023-05-23T11:58:33;94306.69;;;21.80;34.15
33191;BME280;19554;42.652;23.364;2023-05-23T12:01:12;94335.09;;;22.09;34.42
33191;BME280;19554;42.652;23.364;2023-05-23T12:03:45;94328.28;;;21.95;33.45
33191;BME280;19554;42.652;23.364;2023-05-23T12:06:15;94339.75;;;22.12;33.73
33191;BME280;19554;42.652;23.364;2023-05-23T12:08:40;94322.00;;;22.18;34.24
33191;BME280;19554;42.652;23.364;2023-05-23T12:11:06;94326.59;;;22.40;34.42
33191;BME280;19554;42.652;23.364;2023-05-23T12:13:32;94321.41;;;22.32;34.41
33191;BME280;19554;42.652;23.364;2023-05-23T12:16:01;94281.25;;;21.91;34.72
33191;BME280;19554;42.652;23.364;2023-05-23T12:18:28;94263.44;;;21.67;35.68
33191;BME280;19554;42.652;23.364;2023-05-23T12:20:54;94330.44;;;22.09;35.65
33191;BME280;19554;42.652;23.364;2023-05-23T12:23:23;94319.91;;;22.08;35.01
33191;BME280;19554;42.652;23.364;2023-05-23T12:25:53;94308.25;;;22.07;35.66
33191;BME280;19554;42.652;23.364;2023-05-23T12:28:19;94311.47;;;21.86;35.59
33191;BME280;19554;42.652;23.364;2023-05-23T12:30:45;94302.19;;;21.91;35.45
33191;BME280;19554;42.652;23.364;2023-05-23T12:33:11;94297.66;;;21.98;35.28
33191;BME280;19554;42.652;23.364;2023-05-23T12:35:42;94288.47;;;21.80;35.24
33191;BME280;19554;42.652;23.364;2023-05-23T12:38:08;94270.19;;;21.77;35.47
33191;BME280;19554;42.652;23.364;2023-05-23T12:40:34;94305.34;;;21.93;34.74
33191;BME280;19554;42.652;23.364;2023-05-23T12:42:59;94293.06;;;22.03;34.77
33191;BME280;19554;42.652;23.364;2023-05-23T12:45:33;94126.38;;;21.04;34.48
33191;BME280;19554;42.652;23.364;2023-05-23T12:47:59;94293.66;;;22.15;34.31
33191;BME280;19554;42.652;23.364;2023-05-23T12:50:25;94284.78;;;22.22;33.57
33191;BME280;19554;42.652;23.364;2023-05-23T12:52:50;94286.03;;;22.28;33.43
33191;BME280;19554;42.652;23.364;2023-05-23T12:55:16;94276.81;;;22.36;33.77
33191;BME280;19554;42.652;23.364;2023-05-23T12:57:42;94274.91;;;22.40;32.48
33191;BME280;19554;42.652;23.364;2023-05-23T13:00:07;94282.06;;;22.22;31.64
33191;BME280;19554;42.652;23.364;2023-05-23T13:02:33;94277.81;;;22.24;32.09
33191;BME280;19554;42.652;23.364;2023-05-23T13:04:59;94273.16;;;22.25;31.43
33191;BME280;19554;42.652;23.364;2023-05-23T13:07:24;94272.72;;;22.19;31.01
33191;BME280;19554;42.652;23.364;2023-05-23T13:09:50;94268.50;;;22.26;31.44